sensor_id;sensor_type;location;lat;lon;timestamp;P1;durP1;ratioP1;P2;durP2;ratioP2
20322;SDS011;10319;52.206;20.996;2023-01-10T00:01:42;35.93;;;14.67;;
20322;SDS011;10319;52.206;20.996;2023-01-10T00:04:07;38.10;;;16.60;;
20322;SDS011;10319;52.206;20.996;2023-01-10T00:06:33;39.00;;;16.33;;
20322;SDS011;10319;52.206;20.996;2023-01-10T00:08:58;41.93;;;16.47;;
20322;SDS011;10319;52.206;20.996;2023-01-10T00:11:23;43.93;;;18.27;;
20322;SDS011;10319;52.206;20.996;2023-01-10T00:14:07;42.57;;;17.20;;
20322;SDS011;10319;52.206;20.996;2023-01-10T00:16:33;41.90;;;16.80;;
20322;SDS011;10319;52.206;20.996;2023-01-10T00:18:58;47.13;;;19.43;;
20322;SDS011;10319;52.206;20.996;2023-01-10T00:21:23;43.87;;;17.67;;
20322;SDS011;10319;52.206;20.996;2023-01-10T00:23:49;46.17;;;18.27;;
20322;SDS011;10319;52.206;20.996;2023-01-10T00:26:14;43.70;;;18.57;;
20322;SDS011;10319;52.206;20.996;2023-01-10T00:28:39;46.13;;;18.60;;
20322;SDS011;10319;52.206;20.996;2023-01-10T00:31:05;48.17;;;18.47;;
20322;SDS011;10319;52.206;20.996;2023-01-10T00:33:32;46.47;;;18.90;;
20322;SDS011;10319;52.206;20.996;2023-01-10T00:35:57;50.00;;;19.83;;
20322;SDS011;10319;52.206;20.996;2023-01-10T00:38:23;49.30;;;20.13;;
20322;SDS011;10319;52.206;20.996;2023-01-10T00:40:48;48.63;;;18.47;;
20322;SDS011;10319;52.206;20.996;2023-01-10T00:43:13;44.07;;;18.57;;
20322;SDS011;10319;52.206;20.996;2023-01-10T00:45:57;47.73;;;18.63;;
20322;SDS011;10319;52.206;20.996;2023-01-10T00:48:22;41.37;;;16.87;;
20322;SDS011;10319;52.206;20.996;2023-01-10T00:50:48;41.57;;;17.37;;
20322;SDS011;10319;52.206;20.996;2023-01-10T00:53:13;41.33;;;17.90;;
20322;SDS011;10319;52.206;20.996;2023-01-10T00:55:38;43.73;;;17.77;;
20322;SDS011;10319;52.206;20.996;2023-01-10T00:58:05;46.07;;;18.03;;
20322;SDS011;10319;52.206;20.996;2023-01-10T01:00:30;46.97;;;19.43;;
20322;SDS011;10319;52.206;20.996;2023-01-10T01:02:55;39.80;;;16.50;;
20322;SDS011;10319;52.206;20.996;2023-01-10T01:05:21;37.23;;;14.50;;
20322;SDS011;10319;52.206;20.996;2023-01-10T01:07:47;45.57;;;18.43;;
20322;SDS011;10319;52.206;20.996;2023-01-10T01:10:13;46.50;;;18.27;;
20322;SDS011;10319;52.206;20.996;2023-01-10T01:12:50;41.30;;;17.00;;
20322;SDS011;10319;52.206;20.996;2023-01-10T01:15:15;40.80;;;16.17;;
20322;SDS011;10319;52.206;20.996;2023-01-10T01:17:41;42.33;;;17.00;;
20322;SDS011;10319;52.206;20.996;2023-01-10T01:20:06;47.87;;;19.73;;
20322;SDS011;10319;52.206;20.996;2023-01-10T01:22:32;44.03;;;17.80;;
20322;SDS011;10319;52.206;20.996;2023-01-10T01:24:57;42.30;;;16.73;;
20322;SDS011;10319;52.206;20.996;2023-01-10T01:27:22;43.30;;;17.57;;
20322;SDS011;10319;52.206;20.996;2023-01-10T01:29:48;52.63;;;20.30;;
20322;SDS011;10319;52.206;20.996;2023-01-10T01:32:13;53.07;;;19.93;;
20322;SDS011;10319;52.206;20.996;2023-01-10T01:34:38;53.03;;;20.17;;
20322;SDS011;10319;52.206;20.996;2023-01-10T01:37:03;49.70;;;19.90;;
20322;SDS011;10319;52.206;20.996;2023-01-10T01:39:29;46.70;;;19.27;;
20322;SDS011;10319;52.206;20.996;2023-01-10T01:41:54;44.93;;;18.00;;
20322;SDS011;10319;52.206;20.996;2023-01-10T01:44:22;48.40;;;19.33;;
20322;SDS011;10319;52.206;20.996;2023-01-10T01:47:22;43.13;;;17.13;;
20322;SDS011;10319;52.206;20.996;2023-01-10T01:49:40;44.33;;;17.87;;
20322;SDS011;10319;52.206;20.996;2023-01-10T01:52:08;41.83;;;18.90;;
20322;SDS011;10319;52.206;20.996;2023-01-10T01:54:38;45.50;;;17.27;;
20322;SDS011;10319;52.206;20.996;2023-01-10T01:57:10;44.60;;;18.20;;
20322;SDS011;10319;52.206;20.996;2023-01-10T01:59:40;46.20;;;18.77;;
20322;SDS011;10319;52.206;20.996;2023-01-10T02:02:07;45.47;;;17.43;;
20322;SDS011;10319;52.206;20.996;2023-01-10T02:04:39;43.13;;;16.63;;
20322;SDS011;10319;52.206;20.996;2023-01-10T02:07:06;41.63;;;17.40;;
20322;SDS011;10319;52.206;20.996;2023-01-10T02:12:12;46.10;;;18.07;;
20322;SDS011;10319;52.206;20.996;2023-01-10T02:14:38;40.33;;;16.13;;
20322;SDS011;10319;52.206;20.996;2023-01-10T02:17:04;42.97;;;17.33;;
20322;SDS011;10319;52.206;20.996;2023-01-10T02:27:16;40.33;;;17.40;;
20322;SDS011;10319;52.206;20.996;2023-01-10T02:32:18;40.17;;;16.90;;
20322;SDS011;10319;52.206;20.996;2023-01-10T02:35:05;40.60;;;17.00;;
20322;SDS011;10319;52.206;20.996;2023-01-10T02:42:43;47.83;;;20.43;;
20322;SDS011;10319;52.206;20.996;2023-01-10T02:47:39;45.20;;;19.43;;
20322;SDS011;10319;52.206;20.996;2023-01-10T02:52:42;46.40;;;20.30;;
20322;SDS011;10319;52.206;20.996;2023-01-10T02:55:07;53.50;;;21.93;;
20322;SDS011;10319;52.206;20.996;2023-01-10T02:57:49;48.30;;;20.40;;
20322;SDS011;10319;52.206;20.996;2023-01-10T03:02:56;44.90;;;19.07;;
20322;SDS011;10319;52.206;20.996;2023-01-10T03:05:28;44.30;;;18.67;;
20322;SDS011;10319;52.206;20.996;2023-01-10T03:10:24;41.33;;;18.43;;
20322;SDS011;10319;52.206;20.996;2023-01-10T03:12:57;46.43;;;19.70;;
20322;SDS011;10319;52.206;20.996;2023-01-10T03:15:23;38.03;;;16.60;;
20322;SDS011;10319;52.206;20.996;2023-01-10T03:17:51;37.47;;;15.67;;
20322;SDS011;10319;52.206;20.996;2023-01-10T03:20:18;44.20;;;19.53;;
20322;SDS011;10319;52.206;20.996;2023-01-10T03:22:44;44.03;;;19.30;;
20322;SDS011;10319;52.206;20.996;2023-01-10T03:25:11;43.23;;;18.10;;
20322;SDS011;10319;52.206;20.996;2023-01-10T03:32:31;45.67;;;19.73;;
20322;SDS011;10319;52.206;20.996;2023-01-10T03:34:57;46.70;;;19.93;;
20322;SDS011;10319;52.206;20.996;2023-01-10T03:39:58;42.90;;;16.80;;
20322;SDS011;10319;52.206;20.996;2023-01-10T03:42:27;39.37;;;16.83;;
20322;SDS011;10319;52.206;20.996;2023-01-10T03:47:35;41.53;;;17.70;;
20322;SDS011;10319;52.206;20.996;2023-01-10T03:50:03;40.93;;;16.00;;
20322;SDS011;10319;52.206;20.996;2023-01-10T03:52:31;41.57;;;17.10;;
20322;SDS011;10319;52.206;20.996;2023-01-10T03:54:56;44.00;;;17.00;;
20322;SDS011;10319;52.206;20.996;2023-01-10T03:57:23;42.60;;;16.67;;
20322;SDS011;10319;52.206;20.996;2023-01-10T03:59:49;38.57;;;16.03;;
20322;SDS011;10319;52.206;20.996;2023-01-10T04:02:16;31.63;;;13.03;;
20322;SDS011;10319;52.206;20.996;2023-01-10T04:04:41;37.27;;;14.70;;
20322;SDS011;10319;52.206;20.996;2023-01-10T04:07:06;36.03;;;14.30;;
20322;SDS011;10319;52.206;20.996;2023-01-10T04:09:31;38.13;;;15.10;;
20322;SDS011;10319;52.206;20.996;2023-01-10T04:11:57;37.53;;;15.30;;
20322;SDS011;10319;52.206;20.996;2023-01-10T04:14:22;38.43;;;15.33;;
20322;SDS011;10319;52.206;20.996;2023-01-10T04:16:47;31.83;;;12.67;;
20322;SDS011;10319;52.206;20.996;2023-01-10T04:19:12;34.87;;;14.10;;
20322;SDS011;10319;52.206;20.996;2023-01-10T04:21:38;37.33;;;15.70;;
20322;SDS011;10319;52.206;20.996;2023-01-10T04:24:03;37.93;;;14.63;;
20322;SDS011;10319;52.206;20.996;2023-01-10T04:26:28;34.13;;;13.23;;
20322;SDS011;10319;52.206;20.996;2023-01-10T04:28:54;39.20;;;15.00;;
20322;SDS011;10319;52.206;20.996;2023-01-10T04:31:19;35.40;;;14.00;;
20322;SDS011;10319;52.206;20.996;2023-01-10T04:33:46;39.33;;;16.27;;
20322;SDS011;10319;52.206;20.996;2023-01-10T04:36:11;37.37;;;14.60;;
20322;SDS011;10319;52.206;20.996;2023-01-10T04:38:36;34.37;;;13.77;;
20322;SDS011;10319;52.206;20.996;2023-01-10T04:41:01;33.03;;;12.83;;
20322;SDS011;10319;52.206;20.996;2023-01-10T04:43:27;36.53;;;15.00;;
20322;SDS011;10319;52.206;20.996;2023-01-10T04:45:52;34.37;;;13.60;;
20322;SDS011;10319;52.206;20.996;2023-01-10T04:48:17;39.83;;;15.50;;
20322;SDS011;10319;52.206;20.996;2023-01-10T04:50:47;39.33;;;15.10;;
20322;SDS011;10319;52.206;20.996;2023-01-10T04:53:13;36.13;;;15.07;;
20322;SDS011;10319;52.206;20.996;2023-01-10T04:55:38;39.53;;;15.70;;
20322;SDS011;10319;52.206;20.996;2023-01-10T04:58:03;37.60;;;15.37;;
20322;SDS011;10319;52.206;20.996;2023-01-10T05:08:06;37.90;;;16.07;;
20322;SDS011;10319;52.206;20.996;2023-01-10T05:10:31;34.77;;;13.73;;
20322;SDS011;10319;52.206;20.996;2023-01-10T05:12:57;35.97;;;13.70;;
20322;SDS011;10319;52.206;20.996;2023-01-10T05:15:22;32.23;;;12.47;;
20322;SDS011;10319;52.206;20.996;2023-01-10T05:17:47;38.80;;;15.90;;
20322;SDS011;10319;52.206;20.996;2023-01-10T05:20:15;40.53;;;15.60;;
20322;SDS011;10319;52.206;20.996;2023-01-10T05:22:42;37.47;;;13.80;;
20322;SDS011;10319;52.206;20.996;2023-01-10T05:25:07;41.07;;;15.17;;
20322;SDS011;10319;52.206;20.996;2023-01-10T05:27:32;36.43;;;14.03;;
20322;SDS011;10319;52.206;20.996;2023-01-10T05:29:58;37.83;;;15.63;;
20322;SDS011;10319;52.206;20.996;2023-01-10T05:32:26;40.70;;;16.93;;
20322;SDS011;10319;52.206;20.996;2023-01-10T05:34:53;41.13;;;16.10;;
20322;SDS011;10319;52.206;20.996;2023-01-10T05:37:18;40.60;;;16.27;;
20322;SDS011;10319;52.206;20.996;2023-01-10T05:39:43;39.50;;;16.03;;
20322;SDS011;10319;52.206;20.996;2023-01-10T05:42:09;37.37;;;15.47;;
20322;SDS011;10319;52.206;20.996;2023-01-10T05:44:34;37.90;;;14.90;;
20322;SDS011;10319;52.206;20.996;2023-01-10T05:46:59;37.43;;;15.73;;
20322;SDS011;10319;52.206;20.996;2023-01-10T05:49:24;33.50;;;13.37;;
20322;SDS011;10319;52.206;20.996;2023-01-10T05:51:49;38.47;;;16.63;;
20322;SDS011;10319;52.206;20.996;2023-01-10T05:54:15;38.20;;;15.30;;
20322;SDS011;10319;52.206;20.996;2023-01-10T05:56:40;35.93;;;13.87;;
20322;SDS011;10319;52.206;20.996;2023-01-10T05:59:06;33.90;;;13.70;;
20322;SDS011;10319;52.206;20.996;2023-01-10T06:01:32;37.60;;;14.73;;
20322;SDS011;10319;52.206;20.996;2023-01-10T06:03:57;35.37;;;13.33;;
20322;SDS011;10319;52.206;20.996;2023-01-10T06:06:22;38.80;;;16.33;;
20322;SDS011;10319;52.206;20.996;2023-01-10T06:08:47;30.80;;;12.40;;
20322;SDS011;10319;52.206;20.996;2023-01-10T06:11:13;42.90;;;16.70;;
20322;SDS011;10319;52.206;20.996;2023-01-10T06:13:38;40.30;;;16.87;;
20322;SDS011;10319;52.206;20.996;2023-01-10T06:16:03;36.33;;;14.63;;
20322;SDS011;10319;52.206;20.996;2023-01-10T06:18:29;37.33;;;14.63;;
20322;SDS011;10319;52.206;20.996;2023-01-10T06:20:54;38.13;;;15.13;;
20322;SDS011;10319;52.206;20.996;2023-01-10T06:23:19;31.77;;;12.40;;
20322;SDS011;10319;52.206;20.996;2023-01-10T06:25:45;34.20;;;14.17;;
20322;SDS011;10319;52.206;20.996;2023-01-10T06:28:11;34.30;;;12.93;;
20322;SDS011;10319;52.206;20.996;2023-01-10T06:30:37;32.63;;;13.27;;
20322;SDS011;10319;52.206;20.996;2023-01-10T06:33:05;36.17;;;14.10;;
20322;SDS011;10319;52.206;20.996;2023-01-10T06:35:31;37.40;;;13.47;;
20322;SDS011;10319;52.206;20.996;2023-01-10T06:37:56;32.53;;;11.27;;
20322;SDS011;10319;52.206;20.996;2023-01-10T06:40:22;32.67;;;12.43;;
20322;SDS011;10319;52.206;20.996;2023-01-10T06:42:47;35.10;;;13.20;;
20322;SDS011;10319;52.206;20.996;2023-01-10T06:45:13;31.40;;;11.70;;
20322;SDS011;10319;52.206;20.996;2023-01-10T06:47:38;44.40;;;16.23;;
20322;SDS011;10319;52.206;20.996;2023-01-10T06:50:04;38.67;;;14.93;;
20322;SDS011;10319;52.206;20.996;2023-01-10T06:52:30;35.70;;;14.33;;
20322;SDS011;10319;52.206;20.996;2023-01-10T06:54:55;38.70;;;14.80;;
20322;SDS011;10319;52.206;20.996;2023-01-10T06:57:20;34.13;;;13.37;;
20322;SDS011;10319;52.206;20.996;2023-01-10T06:59:46;37.07;;;14.03;;
20322;SDS011;10319;52.206;20.996;2023-01-10T07:02:11;39.83;;;15.80;;
20322;SDS011;10319;52.206;20.996;2023-01-10T07:04:36;35.43;;;12.97;;
20322;SDS011;10319;52.206;20.996;2023-01-10T07:07:02;36.57;;;14.20;;
20322;SDS011;10319;52.206;20.996;2023-01-10T07:09:27;44.33;;;17.67;;
20322;SDS011;10319;52.206;20.996;2023-01-10T07:11:52;34.40;;;13.50;;
20322;SDS011;10319;52.206;20.996;2023-01-10T07:14:17;39.37;;;16.53;;
20322;SDS011;10319;52.206;20.996;2023-01-10T07:16:43;36.03;;;14.10;;
20322;SDS011;10319;52.206;20.996;2023-01-10T07:19:08;36.93;;;14.80;;
20322;SDS011;10319;52.206;20.996;2023-01-10T07:21:33;34.47;;;13.63;;
20322;SDS011;10319;52.206;20.996;2023-01-10T07:23:58;32.37;;;12.97;;
20322;SDS011;10319;52.206;20.996;2023-01-10T07:26:24;33.37;;;13.90;;
20322;SDS011;10319;52.206;20.996;2023-01-10T07:28:49;34.73;;;14.13;;
20322;SDS011;10319;52.206;20.996;2023-01-10T07:31:15;38.83;;;15.37;;
20322;SDS011;10319;52.206;20.996;2023-01-10T07:33:41;44.13;;;18.67;;
20322;SDS011;10319;52.206;20.996;2023-01-10T07:36:06;42.47;;;17.43;;
20322;SDS011;10319;52.206;20.996;2023-01-10T07:38:31;45.07;;;18.53;;
20322;SDS011;10319;52.206;20.996;2023-01-10T07:40:57;38.20;;;16.00;;
20322;SDS011;10319;52.206;20.996;2023-01-10T07:43:22;39.03;;;16.13;;
20322;SDS011;10319;52.206;20.996;2023-01-10T07:45:47;37.47;;;15.67;;
20322;SDS011;10319;52.206;20.996;2023-01-10T07:48:12;36.93;;;15.83;;
20322;SDS011;10319;52.206;20.996;2023-01-10T07:50:38;35.63;;;14.03;;
20322;SDS011;10319;52.206;20.996;2023-01-10T07:53:04;31.97;;;12.90;;
20322;SDS011;10319;52.206;20.996;2023-01-10T07:55:30;31.67;;;13.60;;
20322;SDS011;10319;52.206;20.996;2023-01-10T07:57:55;35.97;;;15.57;;
20322;SDS011;10319;52.206;20.996;2023-01-10T08:00:20;33.40;;;14.57;;
20322;SDS011;10319;52.206;20.996;2023-01-10T08:02:46;42.17;;;18.70;;
20322;SDS011;10319;52.206;20.996;2023-01-10T08:05:11;44.30;;;18.00;;
20322;SDS011;10319;52.206;20.996;2023-01-10T08:07:37;38.80;;;16.43;;
20322;SDS011;10319;52.206;20.996;2023-01-10T08:10:05;48.13;;;20.53;;
20322;SDS011;10319;52.206;20.996;2023-01-10T08:12:30;41.07;;;17.73;;
20322;SDS011;10319;52.206;20.996;2023-01-10T08:14:56;44.90;;;17.43;;
20322;SDS011;10319;52.206;20.996;2023-01-10T08:17:21;43.20;;;18.57;;
20322;SDS011;10319;52.206;20.996;2023-01-10T08:19:47;40.93;;;17.03;;
20322;SDS011;10319;52.206;20.996;2023-01-10T08:22:12;38.80;;;16.53;;
20322;SDS011;10319;52.206;20.996;2023-01-10T08:24:37;43.50;;;18.00;;
20322;SDS011;10319;52.206;20.996;2023-01-10T08:27:03;36.90;;;15.93;;
20322;SDS011;10319;52.206;20.996;2023-01-10T08:29:28;36.00;;;15.13;;
20322;SDS011;10319;52.206;20.996;2023-01-10T08:31:53;32.47;;;13.30;;
20322;SDS011;10319;52.206;20.996;2023-01-10T08:34:18;39.83;;;15.97;;
20322;SDS011;10319;52.206;20.996;2023-01-10T08:36:44;36.37;;;15.80;;
20322;SDS011;10319;52.206;20.996;2023-01-10T08:39:10;34.30;;;15.40;;
20322;SDS011;10319;52.206;20.996;2023-01-10T08:41:35;34.57;;;14.13;;
20322;SDS011;10319;52.206;20.996;2023-01-10T08:44:03;36.83;;;14.77;;
20322;SDS011;10319;52.206;20.996;2023-01-10T08:46:28;33.90;;;14.37;;
20322;SDS011;10319;52.206;20.996;2023-01-10T08:48:54;34.40;;;13.97;;
20322;SDS011;10319;52.206;20.996;2023-01-10T08:51:19;29.13;;;12.33;;
20322;SDS011;10319;52.206;20.996;2023-01-10T08:53:44;33.07;;;13.80;;
20322;SDS011;10319;52.206;20.996;2023-01-10T08:56:09;30.67;;;13.03;;
20322;SDS011;10319;52.206;20.996;2023-01-10T08:58:35;32.63;;;14.50;;
20322;SDS011;10319;52.206;20.996;2023-01-10T09:01:04;35.07;;;14.20;;
20322;SDS011;10319;52.206;20.996;2023-01-10T09:03:29;30.07;;;12.57;;
20322;SDS011;10319;52.206;20.996;2023-01-10T09:05:54;29.10;;;12.90;;
20322;SDS011;10319;52.206;20.996;2023-01-10T09:08:19;29.10;;;12.27;;
20322;SDS011;10319;52.206;20.996;2023-01-10T09:10:45;37.40;;;15.10;;
20322;SDS011;10319;52.206;20.996;2023-01-10T09:13:10;32.63;;;14.13;;
20322;SDS011;10319;52.206;20.996;2023-01-10T09:15:36;30.93;;;12.17;;
20322;SDS011;10319;52.206;20.996;2023-01-10T09:18:03;30.67;;;12.03;;
20322;SDS011;10319;52.206;20.996;2023-01-10T09:20:29;30.53;;;13.33;;
20322;SDS011;10319;52.206;20.996;2023-01-10T09:22:55;29.43;;;12.77;;
20322;SDS011;10319;52.206;20.996;2023-01-10T09:25:21;30.33;;;12.60;;
20322;SDS011;10319;52.206;20.996;2023-01-10T09:27:46;33.53;;;13.23;;
20322;SDS011;10319;52.206;20.996;2023-01-10T09:30:12;32.20;;;13.13;;
20322;SDS011;10319;52.206;20.996;2023-01-10T09:32:37;29.70;;;12.33;;
20322;SDS011;10319;52.206;20.996;2023-01-10T09:35:02;29.93;;;13.00;;
20322;SDS011;10319;52.206;20.996;2023-01-10T09:37:28;28.23;;;11.60;;
20322;SDS011;10319;52.206;20.996;2023-01-10T09:39:53;33.13;;;13.47;;
20322;SDS011;10319;52.206;20.996;2023-01-10T09:42:43;39.87;;;16.30;;
20322;SDS011;10319;52.206;20.996;2023-01-10T09:47:39;34.97;;;14.57;;
20322;SDS011;10319;52.206;20.996;2023-01-10T09:53:13;32.40;;;13.43;;
20322;SDS011;10319;52.206;20.996;2023-01-10T09:55:37;29.83;;;11.83;;
20322;SDS011;10319;52.206;20.996;2023-01-10T09:58:12;33.17;;;13.90;;
20322;SDS011;10319;52.206;20.996;2023-01-10T10:00:43;33.77;;;14.87;;
20322;SDS011;10319;52.206;20.996;2023-01-10T10:03:15;31.60;;;13.70;;
20322;SDS011;10319;52.206;20.996;2023-01-10T10:05:42;32.97;;;13.37;;
20322;SDS011;10319;52.206;20.996;2023-01-10T10:08:07;31.43;;;13.07;;
20322;SDS011;10319;52.206;20.996;2023-01-10T10:10:42;30.10;;;12.63;;
20322;SDS011;10319;52.206;20.996;2023-01-10T10:18:32;33.50;;;13.73;;
20322;SDS011;10319;52.206;20.996;2023-01-10T10:21:03;31.10;;;12.73;;
20322;SDS011;10319;52.206;20.996;2023-01-10T10:33:31;30.00;;;12.50;;
20322;SDS011;10319;52.206;20.996;2023-01-10T10:38:33;29.07;;;12.00;;
20322;SDS011;10319;52.206;20.996;2023-01-10T10:40:59;30.97;;;12.93;;
20322;SDS011;10319;52.206;20.996;2023-01-10T10:43:27;33.33;;;13.53;;
20322;SDS011;10319;52.206;20.996;2023-01-10T10:48:24;31.40;;;13.17;;
20322;SDS011;10319;52.206;20.996;2023-01-10T10:50:54;29.70;;;12.77;;
20322;SDS011;10319;52.206;20.996;2023-01-10T10:53:22;29.43;;;12.60;;
20322;SDS011;10319;52.206;20.996;2023-01-10T10:55:48;33.33;;;13.33;;
20322;SDS011;10319;52.206;20.996;2023-01-10T10:58:13;31.90;;;13.67;;
20322;SDS011;10319;52.206;20.996;2023-01-10T11:00:39;34.50;;;14.93;;
20322;SDS011;10319;52.206;20.996;2023-01-10T11:03:09;31.07;;;12.60;;
20322;SDS011;10319;52.206;20.996;2023-01-10T11:05:40;33.50;;;13.97;;
20322;SDS011;10319;52.206;20.996;2023-01-10T11:08:07;36.93;;;15.97;;
20322;SDS011;10319;52.206;20.996;2023-01-10T11:10:37;31.17;;;12.80;;
20322;SDS011;10319;52.206;20.996;2023-01-10T11:13:04;29.33;;;12.57;;
20322;SDS011;10319;52.206;20.996;2023-01-10T11:15:48;27.87;;;11.50;;
20322;SDS011;10319;52.206;20.996;2023-01-10T11:18:15;33.37;;;13.80;;
20322;SDS011;10319;52.206;20.996;2023-01-10T11:20:47;34.13;;;14.33;;
20322;SDS011;10319;52.206;20.996;2023-01-10T11:23:58;34.50;;;14.67;;
20322;SDS011;10319;52.206;20.996;2023-01-10T11:25:58;32.70;;;13.73;;
20322;SDS011;10319;52.206;20.996;2023-01-10T11:28:30;30.07;;;12.63;;
20322;SDS011;10319;52.206;20.996;2023-01-10T11:30:57;30.20;;;13.10;;
20322;SDS011;10319;52.206;20.996;2023-01-10T11:33:27;28.90;;;12.00;;
20322;SDS011;10319;52.206;20.996;2023-01-10T11:35:55;30.03;;;12.67;;
20322;SDS011;10319;52.206;20.996;2023-01-10T11:38:21;30.60;;;11.67;;
20322;SDS011;10319;52.206;20.996;2023-01-10T11:40:55;30.63;;;12.03;;
20322;SDS011;10319;52.206;20.996;2023-01-10T11:43:28;26.83;;;11.43;;
20322;SDS011;10319;52.206;20.996;2023-01-10T11:45:55;30.50;;;12.07;;
20322;SDS011;10319;52.206;20.996;2023-01-10T11:48:21;28.60;;;11.40;;
20322;SDS011;10319;52.206;20.996;2023-01-10T11:50:48;32.10;;;13.93;;
20322;SDS011;10319;52.206;20.996;2023-01-10T11:56:13;32.27;;;13.43;;
20322;SDS011;10319;52.206;20.996;2023-01-10T11:58:46;36.23;;;13.63;;
20322;SDS011;10319;52.206;20.996;2023-01-10T12:01:28;32.13;;;13.97;;
20322;SDS011;10319;52.206;20.996;2023-01-10T12:03:54;30.73;;;12.53;;
20322;SDS011;10319;52.206;20.996;2023-01-10T12:06:20;32.57;;;13.00;;
20322;SDS011;10319;52.206;20.996;2023-01-10T12:08:45;26.97;;;11.47;;
20322;SDS011;10319;52.206;20.996;2023-01-10T12:11:26;25.90;;;10.50;;
20322;SDS011;10319;52.206;20.996;2023-01-10T12:13:56;27.50;;;11.50;;
20322;SDS011;10319;52.206;20.996;2023-01-10T12:16:32;30.00;;;12.83;;
20322;SDS011;10319;52.206;20.996;2023-01-10T12:19:02;28.90;;;11.80;;
20322;SDS011;10319;52.206;20.996;2023-01-10T12:24:03;27.70;;;10.67;;
20322;SDS011;10319;52.206;20.996;2023-01-10T12:26:31;26.50;;;10.07;;
20322;SDS011;10319;52.206;20.996;2023-01-10T12:28:58;24.90;;;9.63;;
20322;SDS011;10319;52.206;20.996;2023-01-10T12:31:24;25.93;;;10.43;;
20322;SDS011;10319;52.206;20.996;2023-01-10T12:33:52;26.17;;;10.17;;
20322;SDS011;10319;52.206;20.996;2023-01-10T12:41:48;24.67;;;9.83;;
20322;SDS011;10319;52.206;20.996;2023-01-10T12:44:41;27.43;;;11.53;;
20322;SDS011;10319;52.206;20.996;2023-01-10T12:52:19;27.90;;;11.07;;
20322;SDS011;10319;52.206;20.996;2023-01-10T12:54:46;26.00;;;10.90;;
20322;SDS011;10319;52.206;20.996;2023-01-10T12:57:23;27.77;;;12.53;;
20322;SDS011;10319;52.206;20.996;2023-01-10T12:59:50;25.07;;;10.73;;
20322;SDS011;10319;52.206;20.996;2023-01-10T13:02:20;28.40;;;10.83;;
20322;SDS011;10319;52.206;20.996;2023-01-10T13:04:48;23.90;;;9.93;;
20322;SDS011;10319;52.206;20.996;2023-01-10T13:07:16;27.33;;;11.10;;
20322;SDS011;10319;52.206;20.996;2023-01-10T13:09:42;26.27;;;11.37;;
20322;SDS011;10319;52.206;20.996;2023-01-10T13:14:47;32.10;;;12.80;;
20322;SDS011;10319;52.206;20.996;2023-01-10T13:22:40;25.03;;;11.17;;
20322;SDS011;10319;52.206;20.996;2023-01-10T13:25:17;23.53;;;9.40;;
20322;SDS011;10319;52.206;20.996;2023-01-10T13:27:42;27.00;;;12.33;;
20322;SDS011;10319;52.206;20.996;2023-01-10T13:30:21;30.60;;;11.93;;
20322;SDS011;10319;52.206;20.996;2023-01-10T13:32:58;25.00;;;10.40;;
20322;SDS011;10319;52.206;20.996;2023-01-10T13:35:24;22.57;;;10.57;;
20322;SDS011;10319;52.206;20.996;2023-01-10T13:37:53;26.20;;;11.23;;
20322;SDS011;10319;52.206;20.996;2023-01-10T13:40:26;28.73;;;12.57;;
20322;SDS011;10319;52.206;20.996;2023-01-10T13:45:44;25.23;;;11.00;;
20322;SDS011;10319;52.206;20.996;2023-01-10T13:48:26;25.63;;;10.60;;
20322;SDS011;10319;52.206;20.996;2023-01-10T13:50:56;26.03;;;10.67;;
20322;SDS011;10319;52.206;20.996;2023-01-10T13:55:56;24.50;;;10.40;;
20322;SDS011;10319;52.206;20.996;2023-01-10T14:01:20;27.70;;;11.23;;
20322;SDS011;10319;52.206;20.996;2023-01-10T14:04:06;27.10;;;11.57;;
20322;SDS011;10319;52.206;20.996;2023-01-10T14:06:36;27.23;;;12.17;;
20322;SDS011;10319;52.206;20.996;2023-01-10T14:14:17;26.37;;;10.67;;
20322;SDS011;10319;52.206;20.996;2023-01-10T14:16:44;26.07;;;11.77;;
20322;SDS011;10319;52.206;20.996;2023-01-10T14:19:20;30.07;;;13.23;;
20322;SDS011;10319;52.206;20.996;2023-01-10T14:21:47;27.87;;;13.00;;
20322;SDS011;10319;52.206;20.996;2023-01-10T14:24:38;25.07;;;10.63;;
20322;SDS011;10319;52.206;20.996;2023-01-10T14:27:00;25.77;;;10.63;;
20322;SDS011;10319;52.206;20.996;2023-01-10T14:29:28;26.07;;;11.43;;
20322;SDS011;10319;52.206;20.996;2023-01-10T14:31:55;24.93;;;11.27;;
20322;SDS011;10319;52.206;20.996;2023-01-10T14:34:27;26.93;;;11.37;;
20322;SDS011;10319;52.206;20.996;2023-01-10T14:37:00;28.33;;;11.93;;
20322;SDS011;10319;52.206;20.996;2023-01-10T14:39:27;29.90;;;12.40;;
20322;SDS011;10319;52.206;20.996;2023-01-10T14:41:54;24.77;;;10.17;;
20322;SDS011;10319;52.206;20.996;2023-01-10T14:44:31;25.87;;;10.03;;
20322;SDS011;10319;52.206;20.996;2023-01-10T14:46:59;23.77;;;9.53;;
20322;SDS011;10319;52.206;20.996;2023-01-10T14:49:35;21.77;;;8.30;;
20322;SDS011;10319;52.206;20.996;2023-01-10T14:52:17;23.27;;;8.90;;
20322;SDS011;10319;52.206;20.996;2023-01-10T14:54:46;24.23;;;10.17;;
20322;SDS011;10319;52.206;20.996;2023-01-10T14:57:18;24.33;;;9.37;;
20322;SDS011;10319;52.206;20.996;2023-01-10T14:59:43;21.93;;;8.67;;
20322;SDS011;10319;52.206;20.996;2023-01-10T15:04:37;23.47;;;9.60;;
20322;SDS011;10319;52.206;20.996;2023-01-10T15:07:11;22.47;;;9.67;;
20322;SDS011;10319;52.206;20.996;2023-01-10T15:09:37;25.23;;;9.33;;
20322;SDS011;10319;52.206;20.996;2023-01-10T15:12:03;23.80;;;8.60;;
20322;SDS011;10319;52.206;20.996;2023-01-10T15:14:30;22.80;;;8.63;;
20322;SDS011;10319;52.206;20.996;2023-01-10T15:16:56;23.00;;;8.17;;
20322;SDS011;10319;52.206;20.996;2023-01-10T15:19:24;24.57;;;9.43;;
20322;SDS011;10319;52.206;20.996;2023-01-10T15:21:51;22.10;;;8.57;;
20322;SDS011;10319;52.206;20.996;2023-01-10T15:26:50;21.73;;;8.70;;
20322;SDS011;10319;52.206;20.996;2023-01-10T15:29:17;25.03;;;8.97;;
20322;SDS011;10319;52.206;20.996;2023-01-10T15:31:44;22.07;;;9.23;;
20322;SDS011;10319;52.206;20.996;2023-01-10T15:34:14;23.27;;;9.20;;
20322;SDS011;10319;52.206;20.996;2023-01-10T15:36:47;24.40;;;8.63;;
20322;SDS011;10319;52.206;20.996;2023-01-10T15:39:18;22.60;;;8.97;;
20322;SDS011;10319;52.206;20.996;2023-01-10T15:41:44;25.37;;;10.37;;
20322;SDS011;10319;52.206;20.996;2023-01-10T15:44:22;26.13;;;10.43;;
20322;SDS011;10319;52.206;20.996;2023-01-10T15:46:54;24.80;;;10.10;;
20322;SDS011;10319;52.206;20.996;2023-01-10T15:49:21;25.63;;;10.67;;
20322;SDS011;10319;52.206;20.996;2023-01-10T15:51:47;25.10;;;10.20;;
20322;SDS011;10319;52.206;20.996;2023-01-10T15:56:51;24.67;;;9.53;;
20322;SDS011;10319;52.206;20.996;2023-01-10T15:59:38;28.63;;;11.13;;
20322;SDS011;10319;52.206;20.996;2023-01-10T16:04:27;26.93;;;11.87;;
20322;SDS011;10319;52.206;20.996;2023-01-10T16:06:54;27.03;;;12.00;;
20322;SDS011;10319;52.206;20.996;2023-01-10T16:09:28;25.87;;;10.67;;
20322;SDS011;10319;52.206;20.996;2023-01-10T16:11:55;21.80;;;8.90;;